^^
Station Historical Data
Daily Summary for February 1, 2017 Units:  English    Metric   Both
« Previous Day
Next Day »
Daily Weekly Monthly Yearly Custom
  High: Low: Average:
Temperature: 44.1 °F 28.6 °F 36.5 °F
Dew Point: 32.1 °F 25.4 °F 28.8 °F
Humidity: 95% 50% 75%
Wind Speed: 8.0mph 0.0mph 2.3mph
Wind Gust: 22.0mph - -
Wind- - SW
Pressure: 30.06 in 29.85 in -
Precipitation: 0.00 in    
Historical Graphs
 
 
Tabular Data for February 1, 2017
Time Temperature Dew Point Pressure Wind Wind Speed Wind Gust Humidity Rainfall Rate (Hourly) Conditions
00:00 28.6 °F 27.1 °F 29.85 in Calm   1.0 mph 94% 0.00 in OVC
00:10 28.6 °F 27.1 °F 29.85 in Calm     94% 0.00 in OVC
00:20 28.7 °F 27.2 °F 29.86 in Calm     94% 0.00 in OVC
00:30 28.7 °F 27.2 °F 29.86 in Calm   1.0 mph 94% 0.00 in OVC
00:40 28.6 °F 27.1 °F 29.86 in Calm   1.0 mph 94% 0.00 in OVC
00:50 28.8 °F 27.5 °F 29.87 in Calm   1.0 mph 95% 0.00 in OVC
01:00 28.9 °F 27.6 °F 29.86 in Calm   1.0 mph 95% 0.00 in OVC
01:10 29.1 °F 27.8 °F 29.87 in Calm   1.0 mph 95% 0.00 in OVC
01:20 29.3 °F 28.1 °F 29.87 in Calm   1.0 mph 95% 0.00 in OVC
01:30 29.5 °F 28.2 °F 29.88 in Calm   1.0 mph 95% 0.00 in OVC
01:40 29.7 °F 28.4 °F 29.87 in Calm   2.0 mph 95% 0.00 in OVC
01:50 29.8 °F 28.6 °F 29.87 in South 1.0 mph 3.0 mph 95% 0.00 in OVC
02:00 30.0 °F 28.8 °F 29.88 in South 1.0 mph 2.0 mph 95% 0.00 in OVC
02:10 30.2 °F 28.7 °F 29.88 in SW 1.0 mph 3.0 mph 94% 0.00 in BKN
02:20 30.3 °F 28.8 °F 29.88 in Calm   1.0 mph 94% 0.00 in BKN
02:30 30.1 °F 28.6 °F 29.88 in Calm     94% 0.00 in BKN
02:40 29.8 °F 28.0 °F 29.88 in Calm     93% 0.00 in BKN
02:50 29.6 °F 27.8 °F 29.87 in Calm     93% 0.00 in BKN
03:00 29.6 °F 28.1 °F 29.88 in Calm   1.0 mph 94% 0.00 in BKN
03:10 29.5 °F 28.0 °F 29.88 in Calm     94% 0.00 in BKN
03:20 29.7 °F 28.2 °F 29.88 in SSW 2.0 mph 5.0 mph 94% 0.00 in BKN
03:30 29.9 °F 28.4 °F 29.87 in SSW 1.0 mph 3.0 mph 94% 0.00 in BKN
03:40 30.0 °F 28.2 °F 29.88 in SW 2.0 mph 5.0 mph 93% 0.00 in BKN
03:50 30.1 °F 28.3 °F 29.88 in South 1.0 mph 4.0 mph 93% 0.00 in BKN
04:00 30.4 °F 28.6 °F 29.88 in SW 1.0 mph 5.0 mph 93% 0.00 in BKN
04:10 30.6 °F 28.6 °F 29.88 in SSW 1.0 mph 5.0 mph 92% 0.00 in BKN
04:20 31.0 °F 28.7 °F 29.88 in SSW 3.0 mph 7.0 mph 91% 0.00 in BKN
04:30 31.1 °F 28.5 °F 29.88 in SW 3.0 mph 7.0 mph 90% 0.00 in BKN
04:40 31.2 °F 28.3 °F 29.88 in SSW 2.0 mph 6.0 mph 89% 0.00 in BKN
04:50 31.8 °F 28.7 °F 29.87 in SSW 1.0 mph 8.0 mph 88% 0.00 in BKN
05:00 32.5 °F 28.7 °F 29.88 in SSW 3.0 mph 7.0 mph 86% 0.00 in BKN
05:10 33.0 °F 29.0 °F 29.89 in SSW 3.0 mph 8.0 mph 85% 0.00 in SCT
05:20 33.3 °F 29.0 °F 29.89 in SSW 3.0 mph 8.0 mph 84% 0.00 in SCT
05:30 33.7 °F 28.8 °F 29.89 in SSW 2.0 mph 9.0 mph 82% 0.00 in SCT
05:40 34.2 °F 28.9 °F 29.89 in SSW 1.0 mph 8.0 mph 81% 0.00 in SCT
05:50 34.5 °F 29.0 °F 29.91 in SW 3.0 mph 9.0 mph 80% 0.00 in SCT
06:00 34.4 °F 28.9 °F 29.91 in SSW 5.0 mph 12.0 mph 80% 0.00 in SCT
06:10 34.6 °F 28.7 °F 29.91 in SSW 5.0 mph 12.0 mph 79% 0.00 in CLR
06:20 34.8 °F 28.6 °F 29.91 in SW 3.0 mph 11.0 mph 78% 0.00 in CLR
06:30 34.9 °F 28.4 °F 29.92 in South 3.0 mph 12.0 mph 77% 0.00 in CLR
06:40 35.0 °F 28.5 °F 29.92 in SSW 5.0 mph 12.0 mph 77% 0.00 in CLR
06:50 35.0 °F 28.2 °F 29.92 in SSW 2.0 mph 9.0 mph 76% 0.00 in CLR
07:00 35.0 °F 28.2 °F 29.92 in SSW 2.0 mph 11.0 mph 76% 0.00 in CLR
07:10 35.1 °F 28.0 °F 29.92 in SW 2.0 mph 10.0 mph 75% 0.00 in SCT
07:20 35.0 °F 27.9 °F 29.92 in SW 5.0 mph 10.0 mph 75% 0.00 in SCT
07:50 35.1 °F 28.0 °F 29.93 in SW 1.0 mph 9.0 mph 75% 0.00 in SCT
08:00 34.7 °F 27.9 °F 29.94 in SW 1.0 mph 6.0 mph 76% 0.00 in SCT
08:10 34.5 °F 27.7 °F 29.94 in SSW 2.0 mph 5.0 mph 76% 0.00 in SCT
08:20 34.4 °F 27.9 °F 29.94 in SSW 1.0 mph 5.0 mph 77% 0.00 in SCT
08:30 35.3 °F 28.1 °F 29.94 in WSW 3.0 mph 10.0 mph 75% 0.00 in SCT
08:40 36.0 °F 28.2 °F 29.94 in SW 2.0 mph 14.0 mph 73% 0.00 in SCT
08:50 36.1 °F 28.3 °F 29.95 in SW 6.0 mph 13.0 mph 73% 0.00 in SCT
09:00 35.9 °F 28.1 °F 29.95 in SW 5.0 mph 14.0 mph 73% 0.00 in SCT
09:10 35.7 °F 28.2 °F 29.95 in SSW 2.0 mph 15.0 mph 74% 0.00 in FEW
09:20 35.7 °F 27.9 °F 29.96 in SW 5.0 mph 12.0 mph 73% 0.00 in FEW
09:30 35.9 °F 28.1 °F 29.96 in SW 2.0 mph 10.0 mph 73% 0.00 in FEW
09:40 36.6 °F 28.1 °F 29.96 in SSW 5.0 mph 11.0 mph 71% 0.00 in FEW
09:50 37.2 °F 28.3 °F 29.96 in SSW 5.0 mph 12.0 mph 70% 0.00 in FEW
10:00 37.5 °F 28.6 °F 29.95 in SW 2.0 mph 11.0 mph 70% 0.00 in FEW
10:10 38.1 °F 28.5 °F 29.95 in SW 2.0 mph 12.0 mph 68% 0.00 in FEW
10:20 38.6 °F 28.2 °F 29.95 in WSW 3.0 mph 12.0 mph 66% 0.00 in FEW
10:30 39.1 °F 28.3 °F 29.96 in SW 5.0 mph 13.0 mph 65% 0.01 in RA
10:40 39.6 °F 28.1 °F 29.95 in SW 6.0 mph 10.0 mph 63% 0.00 in FEW
10:50 40.1 °F 28.1 °F 29.95 in SW 5.0 mph 12.0 mph 62% 0.01 in RA
11:00 41.0 °F 28.6 °F 29.96 in SW 2.0 mph 9.0 mph 61% 0.01 in RA
11:10 41.7 °F 26.7 °F 29.96 in WSW 3.0 mph 12.0 mph 55% 0.01 in RA
11:20 41.8 °F 26.4 °F 29.95 in SW 5.0 mph 14.0 mph 54% 0.01 in RA
11:30 41.7 °F 25.4 °F 29.95 in SW 6.0 mph 14.0 mph 52% 0.02 in RA
11:40 42.1 °F 25.7 °F 29.94 in WSW 5.0 mph 13.0 mph 52% 0.00 in RA
11:50 42.3 °F 25.9 °F 29.93 in WSW 6.0 mph 10.0 mph 52% 0.00 in FEW
12:00 43.1 °F 26.2 °F 29.93 in WSW 6.0 mph 14.0 mph 51% 0.00 in FEW
12:10 43.4 °F 26.5 °F 29.92 in WSW 5.0 mph 15.0 mph 51% 0.00 in FEW
12:20 44.0 °F 26.6 °F 29.92 in SW 7.0 mph 14.0 mph 50% 0.00 in FEW
12:30 43.8 °F 26.8 °F 29.92 in SW 5.0 mph 13.0 mph 51% 0.00 in FEW
12:40 44.1 °F 26.6 °F 29.92 in SW 7.0 mph 22.0 mph 50% 0.01 in RA
12:50 44.1 °F 26.7 °F 29.92 in SW 7.0 mph 17.0 mph 50% 0.00 in FEW
13:00 43.9 °F 26.5 °F 29.92 in WSW 8.0 mph 17.0 mph 50% 0.00 in FEW
13:10 43.3 °F 26.8 °F 29.92 in WSW 5.0 mph 16.0 mph 52% 0.00 in BKN
13:20 43.3 °F 27.3 °F 29.91 in WSW 2.0 mph 13.0 mph 53% 0.00 in BKN
13:30 43.4 °F 26.5 °F 29.91 in WSW 6.0 mph 13.0 mph 51% 0.00 in BKN
13:40 43.5 °F 27.5 °F 29.91 in SW 3.0 mph 12.0 mph 53% 0.00 in BKN
13:50 43.5 °F 27.5 °F 29.91 in SW 2.0 mph 8.0 mph 53% 0.00 in BKN
14:00 43.5 °F 27.5 °F 29.90 in WSW 6.0 mph 12.0 mph 53% 0.00 in BKN
14:10 43.6 °F 28.0 °F 29.91 in SW 5.0 mph 10.0 mph 54% 0.00 in BKN
14:20 43.8 °F 28.2 °F 29.91 in SW 2.0 mph 7.0 mph 54% 0.00 in BKN
14:30 43.7 °F 27.2 °F 29.91 in SW 3.0 mph 13.0 mph 52% 0.00 in BKN
14:40 43.8 °F 27.8 °F 29.92 in SW 6.0 mph 16.0 mph 53% 0.00 in BKN
14:50 43.7 °F 28.1 °F 29.92 in WSW 5.0 mph 19.0 mph 54% 0.00 in BKN
15:00 43.5 °F 27.9 °F 29.93 in WSW 6.0 mph 17.0 mph 54% 0.00 in BKN
15:20 43.0 °F 28.8 °F 29.93 in SW 5.0 mph 12.0 mph 57% 0.00 in -RA
15:30 42.7 °F 29.0 °F 29.93 in SW 2.0 mph 8.0 mph 58% 0.00 in -RA
15:40 42.8 °F 29.0 °F 29.94 in WSW 2.0 mph 12.0 mph 58% 0.00 in -RA
15:50 42.9 °F 29.1 °F 29.94 in SW 2.0 mph 11.0 mph 58% 0.00 in -RA
16:00 43.1 °F 28.9 °F 29.94 in West 2.0 mph 8.0 mph 57% 0.00 in -RA
16:10 42.9 °F 28.7 °F 29.94 in WSW 1.0 mph 7.0 mph 57% 0.00 in BKN
16:20 42.6 °F 28.0 °F 29.94 in SW 3.0 mph 13.0 mph 56% 0.00 in RA
16:30 42.5 °F 27.9 °F 29.95 in SW 2.0 mph 13.0 mph 56% 0.00 in BKN
16:40 42.2 °F 28.0 °F 29.95 in SW 5.0 mph 9.0 mph 57% 0.00 in BKN
16:50 41.8 °F 28.1 °F 29.96 in SW 2.0 mph 7.0 mph 58% 0.00 in BKN
17:00 41.6 °F 28.3 °F 29.97 in SW 2.0 mph 9.0 mph 59% 0.00 in BKN
17:10 41.2 °F 28.4 °F 29.96 in SW 1.0 mph 6.0 mph 60% 0.00 in SCT
17:20 40.9 °F 28.5 °F 29.96 in SW 3.0 mph 8.0 mph 61% 0.00 in SCT
17:30 40.8 °F 28.8 °F 29.97 in Calm   7.0 mph 62% 0.00 in SCT
17:40 40.7 °F 28.7 °F 29.98 in SW 1.0 mph 6.0 mph 62% 0.00 in SCT
17:50 40.8 °F 28.8 °F 29.99 in SW 1.0 mph 7.0 mph 62% 0.00 in SCT
18:00 40.5 °F 30.0 °F 30.00 in ENE 3.0 mph 9.0 mph 66% 0.00 in SCT
18:10 39.2 °F 30.9 °F 30.00 in NE 1.0 mph 8.0 mph 72% 0.00 in SCT
18:20 38.2 °F 31.3 °F 30.01 in NNW 1.0 mph 7.0 mph 76% 0.00 in SCT
18:30 37.7 °F 31.8 °F 30.02 in Calm   6.0 mph 79% 0.00 in SCT
18:40 37.3 °F 31.7 °F 30.01 in Calm   2.0 mph 80% 0.00 in SCT
18:50 37.0 °F 31.4 °F 30.01 in Calm   1.0 mph 80% 0.00 in SCT
19:00 36.7 °F 31.5 °F 30.02 in Calm   1.0 mph 81% 0.00 in SCT
19:10 36.6 °F 31.6 °F 30.01 in Calm   2.0 mph 82% 0.00 in BKN
19:20 36.4 °F 31.5 °F 30.02 in Calm   2.0 mph 82% 0.00 in BKN
19:30 36.2 °F 31.2 °F 30.02 in Calm     82% 0.00 in BKN
19:40 36.0 °F 31.3 °F 30.02 in Calm   2.0 mph 83% 0.00 in BKN
19:50 35.7 °F 31.0 °F 30.02 in Calm     83% 0.00 in BKN
20:00 35.2 °F 30.9 °F 30.02 in Calm     84% 0.00 in BKN
20:10 34.9 °F 31.2 °F 30.03 in SW 1.0 mph 3.0 mph 86% 0.00 in FEW
20:20 35.2 °F 31.4 °F 30.03 in Calm   2.0 mph 86% 0.00 in FEW
20:30 35.3 °F 31.8 °F 30.02 in Calm   3.0 mph 87% 0.00 in FEW
20:40 35.3 °F 31.8 °F 30.02 in Calm   2.0 mph 87% 0.00 in FEW
20:50 35.1 °F 31.6 °F 30.03 in SW 1.0 mph 2.0 mph 87% 0.00 in FEW
21:00 34.9 °F 31.7 °F 30.03 in Calm   2.0 mph 88% 0.00 in FEW
21:10 34.8 °F 31.6 °F 30.03 in Calm   2.0 mph 88% 0.00 in CLR
21:20 34.9 °F 31.9 °F 30.04 in SSW 1.0 mph 4.0 mph 89% 0.00 in CLR
21:30 35.0 °F 32.1 °F 30.04 in SSW 1.0 mph 6.0 mph 89% 0.00 in CLR
21:40 35.1 °F 32.0 °F 30.05 in SSW 5.0 mph 9.0 mph 88% 0.00 in CLR
21:50 35.8 °F 31.1 °F 30.05 in WSW 2.0 mph 8.0 mph 83% 0.00 in CLR
22:00 35.6 °F 31.3 °F 30.05 in Calm   8.0 mph 84% 0.00 in CLR
22:10 35.1 °F 31.3 °F 30.05 in SW 1.0 mph 3.0 mph 86% 0.00 in CLR
22:20 34.8 °F 31.3 °F 30.05 in SSW 3.0 mph 7.0 mph 87% 0.00 in CLR
22:30 34.5 °F 31.0 °F 30.05 in SSW 1.0 mph 4.0 mph 87% 0.00 in CLR
22:40 34.2 °F 30.8 °F 30.06 in SW 1.0 mph 4.0 mph 87% 0.00 in CLR
22:50 34.3 °F 30.5 °F 30.05 in SSW 1.0 mph 6.0 mph 86% 0.00 in CLR
23:00 34.1 °F 30.1 °F 30.04 in SW 2.0 mph 6.0 mph 85% 0.00 in CLR
23:10 34.3 °F 29.7 °F 30.05 in SW 1.0 mph 6.0 mph 83% 0.00 in CLR
23:20 34.4 °F 29.2 °F 30.05 in SW 1.0 mph 6.0 mph 81% 0.00 in CLR
23:30 34.5 °F 29.0 °F 30.06 in SW 2.0 mph 7.0 mph 80% 0.00 in CLR
23:40 34.4 °F 28.8 °F 30.06 in WSW 2.0 mph 5.0 mph 80% 0.00 in CLR
TarryTown NY Weather
Compliments of Weather Underground - 1.75 mb